sensor_id;sensor_type;location;lat;lon;timestamp;temperature;humidity
22471;DHT22;11402;51.374;6.594;2023-03-13T00:01:31;10.50;99.90
22471;DHT22;11402;51.374;6.594;2023-03-13T00:03:56;10.50;99.90
22471;DHT22;11402;51.374;6.594;2023-03-13T00:06:24;10.50;99.90
22471;DHT22;11402;51.374;6.594;2023-03-13T00:08:50;10.40;99.90
22471;DHT22;11402;51.374;6.594;2023-03-13T00:11:16;10.50;99.90
22471;DHT22;11402;51.374;6.594;2023-03-13T00:13:42;10.60;99.90
22471;DHT22;11402;51.374;6.594;2023-03-13T00:16:10;10.50;99.90
22471;DHT22;11402;51.374;6.594;2023-03-13T00:18:36;10.50;99.90
22471;DHT22;11402;51.374;6.594;2023-03-13T00:21:10;10.50;99.90
22471;DHT22;11402;51.374;6.594;2023-03-13T00:23:37;10.50;99.90
22471;DHT22;11402;51.374;6.594;2023-03-13T00:26:05;10.50;99.90
22471;DHT22;11402;51.374;6.594;2023-03-13T00:28:32;10.50;99.90
22471;DHT22;11402;51.374;6.594;2023-03-13T00:31:09;10.50;99.90
22471;DHT22;11402;51.374;6.594;2023-03-13T00:33:37;10.50;99.90
22471;DHT22;11402;51.374;6.594;2023-03-13T00:36:08;10.50;99.90
22471;DHT22;11402;51.374;6.594;2023-03-13T00:38:34;10.60;99.90
22471;DHT22;11402;51.374;6.594;2023-03-13T00:41:05;10.60;99.90
22471;DHT22;11402;51.374;6.594;2023-03-13T00:43:31;10.60;99.90
22471;DHT22;11402;51.374;6.594;2023-03-13T00:45:57;10.50;99.90
22471;DHT22;11402;51.374;6.594;2023-03-13T00:48:23;10.50;99.90
22471;DHT22;11402;51.374;6.594;2023-03-13T00:50:49;10.50;99.90
22471;DHT22;11402;51.374;6.594;2023-03-13T00:53:15;10.50;99.90
22471;DHT22;11402;51.374;6.594;2023-03-13T00:56:02;10.40;99.90
22471;DHT22;11402;51.374;6.594;2023-03-13T00:58:29;10.40;99.90
22471;DHT22;11402;51.374;6.594;2023-03-13T01:00:56;10.50;99.90
22471;DHT22;11402;51.374;6.594;2023-03-13T01:03:23;10.40;99.90
22471;DHT22;11402;51.374;6.594;2023-03-13T01:05:59;10.50;99.90
22471;DHT22;11402;51.374;6.594;2023-03-13T01:08:26;10.50;99.90
22471;DHT22;11402;51.374;6.594;2023-03-13T01:10:57;10.50;99.90
22471;DHT22;11402;51.374;6.594;2023-03-13T01:13:23;10.40;99.90
22471;DHT22;11402;51.374;6.594;2023-03-13T01:15:49;10.40;99.90
22471;DHT22;11402;51.374;6.594;2023-03-13T01:18:14;10.50;99.90
22471;DHT22;11402;51.374;6.594;2023-03-13T01:20:40;10.40;99.90
22471;DHT22;11402;51.374;6.594;2023-03-13T01:23:06;10.40;99.90
22471;DHT22;11402;51.374;6.594;2023-03-13T01:25:35;10.40;99.90
22471;DHT22;11402;51.374;6.594;2023-03-13T01:28:01;10.30;99.90
22471;DHT22;11402;51.374;6.594;2023-03-13T01:30:27;10.30;99.90
22471;DHT22;11402;51.374;6.594;2023-03-13T01:32:53;10.30;99.90
22471;DHT22;11402;51.374;6.594;2023-03-13T01:35:18;10.20;99.90
22471;DHT22;11402;51.374;6.594;2023-03-13T01:37:44;10.20;99.90
22471;DHT22;11402;51.374;6.594;2023-03-13T01:40:10;10.20;99.90
22471;DHT22;11402;51.374;6.594;2023-03-13T01:42:56;10.20;99.90
22471;DHT22;11402;51.374;6.594;2023-03-13T01:48:16;10.10;99.90
22471;DHT22;11402;51.374;6.594;2023-03-13T01:50:41;10.10;99.90
22471;DHT22;11402;51.374;6.594;2023-03-13T01:53:07;10.10;99.90
22471;DHT22;11402;51.374;6.594;2023-03-13T01:55:33;10.00;99.90
22471;DHT22;11402;51.374;6.594;2023-03-13T01:57:59;10.00;99.90
22471;DHT22;11402;51.374;6.594;2023-03-13T02:00:33;10.00;99.90
22471;DHT22;11402;51.374;6.594;2023-03-13T02:03:04;10.10;99.90
22471;DHT22;11402;51.374;6.594;2023-03-13T02:05:31;10.00;99.90
22471;DHT22;11402;51.374;6.594;2023-03-13T02:07:59;10.00;99.90
22471;DHT22;11402;51.374;6.594;2023-03-13T02:10:28;10.00;99.90
22471;DHT22;11402;51.374;6.594;2023-03-13T02:12:54;10.00;99.90
22471;DHT22;11402;51.374;6.594;2023-03-13T02:15:22;10.10;99.90
22471;DHT22;11402;51.374;6.594;2023-03-13T02:17:49;10.10;99.90
22471;DHT22;11402;51.374;6.594;2023-03-13T02:20:17;10.10;99.90
22471;DHT22;11402;51.374;6.594;2023-03-13T02:25:47;10.10;99.90
22471;DHT22;11402;51.374;6.594;2023-03-13T02:30:43;10.10;99.90
22471;DHT22;11402;51.374;6.594;2023-03-13T02:33:10;10.10;99.90
22471;DHT22;11402;51.374;6.594;2023-03-13T02:35:36;10.10;99.90
22471;DHT22;11402;51.374;6.594;2023-03-13T02:38:05;10.20;99.90
22471;DHT22;11402;51.374;6.594;2023-03-13T02:40:38;10.20;99.90
22471;DHT22;11402;51.374;6.594;2023-03-13T02:43:42;10.20;99.90
22471;DHT22;11402;51.374;6.594;2023-03-13T02:46:02;10.20;99.90
22471;DHT22;11402;51.374;6.594;2023-03-13T02:48:35;10.30;99.90
22471;DHT22;11402;51.374;6.594;2023-03-13T02:51:04;10.30;99.90
22471;DHT22;11402;51.374;6.594;2023-03-13T02:53:32;10.40;99.90
22471;DHT22;11402;51.374;6.594;2023-03-13T02:55:58;10.30;99.90
22471;DHT22;11402;51.374;6.594;2023-03-13T02:58:24;10.40;99.90
22471;DHT22;11402;51.374;6.594;2023-03-13T03:00:51;10.50;99.90
22471;DHT22;11402;51.374;6.594;2023-03-13T03:03:17;10.40;99.90
22471;DHT22;11402;51.374;6.594;2023-03-13T03:05:42;10.50;99.90
22471;DHT22;11402;51.374;6.594;2023-03-13T03:08:08;10.50;99.90
22471;DHT22;11402;51.374;6.594;2023-03-13T03:10:35;10.50;99.90
22471;DHT22;11402;51.374;6.594;2023-03-13T03:13:01;10.50;99.90
22471;DHT22;11402;51.374;6.594;2023-03-13T03:15:27;10.60;99.90
22471;DHT22;11402;51.374;6.594;2023-03-13T03:17:53;10.60;99.90
22471;DHT22;11402;51.374;6.594;2023-03-13T03:20:18;10.60;99.90
22471;DHT22;11402;51.374;6.594;2023-03-13T03:22:44;10.60;99.90
22471;DHT22;11402;51.374;6.594;2023-03-13T03:25:09;10.60;99.90
22471;DHT22;11402;51.374;6.594;2023-03-13T03:27:35;10.70;99.90
22471;DHT22;11402;51.374;6.594;2023-03-13T03:30:02;10.70;99.90
22471;DHT22;11402;51.374;6.594;2023-03-13T03:32:28;10.80;99.90
22471;DHT22;11402;51.374;6.594;2023-03-13T03:34:54;10.80;99.90
22471;DHT22;11402;51.374;6.594;2023-03-13T03:37:19;10.90;99.90
22471;DHT22;11402;51.374;6.594;2023-03-13T03:39:45;10.90;99.90
22471;DHT22;11402;51.374;6.594;2023-03-13T03:42:11;10.90;99.90
22471;DHT22;11402;51.374;6.594;2023-03-13T03:44:36;11.00;99.90
22471;DHT22;11402;51.374;6.594;2023-03-13T03:47:02;10.90;99.90
22471;DHT22;11402;51.374;6.594;2023-03-13T03:49:27;11.00;99.90
22471;DHT22;11402;51.374;6.594;2023-03-13T03:51:53;11.00;99.90
22471;DHT22;11402;51.374;6.594;2023-03-13T03:54:18;11.00;99.90
22471;DHT22;11402;51.374;6.594;2023-03-13T03:56:44;11.10;99.90
22471;DHT22;11402;51.374;6.594;2023-03-13T03:59:09;11.10;99.90
22471;DHT22;11402;51.374;6.594;2023-03-13T04:01:35;11.10;99.90
22471;DHT22;11402;51.374;6.594;2023-03-13T04:04:01;11.10;99.90
22471;DHT22;11402;51.374;6.594;2023-03-13T04:06:26;11.20;99.90
22471;DHT22;11402;51.374;6.594;2023-03-13T04:08:52;11.20;99.90
22471;DHT22;11402;51.374;6.594;2023-03-13T04:11:18;11.20;99.90
22471;DHT22;11402;51.374;6.594;2023-03-13T04:13:44;11.20;99.90
22471;DHT22;11402;51.374;6.594;2023-03-13T04:16:10;11.20;99.90
22471;DHT22;11402;51.374;6.594;2023-03-13T04:18:35;11.30;99.90
22471;DHT22;11402;51.374;6.594;2023-03-13T04:21:02;11.30;99.90
22471;DHT22;11402;51.374;6.594;2023-03-13T04:23:28;11.30;99.90
22471;DHT22;11402;51.374;6.594;2023-03-13T04:25:54;11.40;99.90
22471;DHT22;11402;51.374;6.594;2023-03-13T04:28:19;11.40;99.90
22471;DHT22;11402;51.374;6.594;2023-03-13T04:30:45;11.40;99.90
22471;DHT22;11402;51.374;6.594;2023-03-13T04:33:10;11.40;99.90
22471;DHT22;11402;51.374;6.594;2023-03-13T04:35:36;11.50;99.90
22471;DHT22;11402;51.374;6.594;2023-03-13T04:38:01;11.40;99.90
22471;DHT22;11402;51.374;6.594;2023-03-13T04:40:27;11.50;99.90
22471;DHT22;11402;51.374;6.594;2023-03-13T04:42:53;11.50;99.90
22471;DHT22;11402;51.374;6.594;2023-03-13T04:45:19;11.50;99.90
22471;DHT22;11402;51.374;6.594;2023-03-13T04:47:45;11.60;99.90
22471;DHT22;11402;51.374;6.594;2023-03-13T04:50:11;11.60;99.90
22471;DHT22;11402;51.374;6.594;2023-03-13T04:52:37;11.60;99.90
22471;DHT22;11402;51.374;6.594;2023-03-13T04:55:03;11.70;99.90
22471;DHT22;11402;51.374;6.594;2023-03-13T04:57:28;11.70;99.90
22471;DHT22;11402;51.374;6.594;2023-03-13T04:59:54;11.70;99.90
22471;DHT22;11402;51.374;6.594;2023-03-13T05:02:20;11.60;99.90
22471;DHT22;11402;51.374;6.594;2023-03-13T05:04:45;11.70;99.90
22471;DHT22;11402;51.374;6.594;2023-03-13T05:07:11;11.90;99.90
22471;DHT22;11402;51.374;6.594;2023-03-13T05:09:36;12.10;99.90
22471;DHT22;11402;51.374;6.594;2023-03-13T05:12:02;11.80;99.90
22471;DHT22;11402;51.374;6.594;2023-03-13T05:14:28;11.80;99.90
22471;DHT22;11402;51.374;6.594;2023-03-13T05:16:53;11.80;99.90
22471;DHT22;11402;51.374;6.594;2023-03-13T05:19:19;11.80;99.90
22471;DHT22;11402;51.374;6.594;2023-03-13T05:21:44;11.90;99.90
22471;DHT22;11402;51.374;6.594;2023-03-13T05:24:10;11.80;99.90
22471;DHT22;11402;51.374;6.594;2023-03-13T05:26:35;11.90;99.90
22471;DHT22;11402;51.374;6.594;2023-03-13T05:29:01;11.80;99.90
22471;DHT22;11402;51.374;6.594;2023-03-13T05:31:27;11.80;99.90
22471;DHT22;11402;51.374;6.594;2023-03-13T05:33:52;11.90;99.90
22471;DHT22;11402;51.374;6.594;2023-03-13T05:36:18;11.80;99.90
22471;DHT22;11402;51.374;6.594;2023-03-13T05:38:43;11.90;99.90
22471;DHT22;11402;51.374;6.594;2023-03-13T05:41:09;11.90;99.90
22471;DHT22;11402;51.374;6.594;2023-03-13T05:43:35;12.00;99.90
22471;DHT22;11402;51.374;6.594;2023-03-13T05:46:00;12.00;99.90
22471;DHT22;11402;51.374;6.594;2023-03-13T05:48:26;12.00;99.90
22471;DHT22;11402;51.374;6.594;2023-03-13T05:50:51;12.00;99.90
22471;DHT22;11402;51.374;6.594;2023-03-13T05:53:17;12.00;99.90
22471;DHT22;11402;51.374;6.594;2023-03-13T05:55:42;12.00;99.90
22471;DHT22;11402;51.374;6.594;2023-03-13T05:58:08;12.10;99.90
22471;DHT22;11402;51.374;6.594;2023-03-13T06:00:33;12.20;99.90
22471;DHT22;11402;51.374;6.594;2023-03-13T06:02:59;12.10;99.90
22471;DHT22;11402;51.374;6.594;2023-03-13T06:05:25;12.10;99.90
22471;DHT22;11402;51.374;6.594;2023-03-13T06:07:51;12.10;99.90
22471;DHT22;11402;51.374;6.594;2023-03-13T06:10:16;12.00;99.90
22471;DHT22;11402;51.374;6.594;2023-03-13T06:12:42;12.10;99.90
22471;DHT22;11402;51.374;6.594;2023-03-13T06:15:08;12.10;99.90
22471;DHT22;11402;51.374;6.594;2023-03-13T06:17:34;12.10;99.90
22471;DHT22;11402;51.374;6.594;2023-03-13T06:20:01;12.20;99.90
22471;DHT22;11402;51.374;6.594;2023-03-13T06:22:26;12.20;99.90
22471;DHT22;11402;51.374;6.594;2023-03-13T06:24:52;12.20;99.90
22471;DHT22;11402;51.374;6.594;2023-03-13T06:27:18;12.30;99.90
22471;DHT22;11402;51.374;6.594;2023-03-13T06:29:44;12.30;99.90
22471;DHT22;11402;51.374;6.594;2023-03-13T06:32:09;12.30;99.90
22471;DHT22;11402;51.374;6.594;2023-03-13T06:34:35;12.30;99.90
22471;DHT22;11402;51.374;6.594;2023-03-13T06:37:01;12.30;99.90
22471;DHT22;11402;51.374;6.594;2023-03-13T06:39:28;12.30;99.90
22471;DHT22;11402;51.374;6.594;2023-03-13T06:41:53;12.40;99.90
22471;DHT22;11402;51.374;6.594;2023-03-13T06:44:19;12.40;99.90
22471;DHT22;11402;51.374;6.594;2023-03-13T06:46:45;12.40;99.90
22471;DHT22;11402;51.374;6.594;2023-03-13T06:49:10;12.40;99.90
22471;DHT22;11402;51.374;6.594;2023-03-13T06:51:36;12.50;99.90
22471;DHT22;11402;51.374;6.594;2023-03-13T06:54:02;12.50;99.90
22471;DHT22;11402;51.374;6.594;2023-03-13T06:56:28;12.50;99.90
22471;DHT22;11402;51.374;6.594;2023-03-13T06:58:53;12.50;99.90
22471;DHT22;11402;51.374;6.594;2023-03-13T07:01:19;12.60;99.90
22471;DHT22;11402;51.374;6.594;2023-03-13T07:03:46;12.60;99.90
22471;DHT22;11402;51.374;6.594;2023-03-13T07:06:13;12.60;99.90
22471;DHT22;11402;51.374;6.594;2023-03-13T07:08:39;12.60;99.90
22471;DHT22;11402;51.374;6.594;2023-03-13T07:11:07;12.60;99.90
22471;DHT22;11402;51.374;6.594;2023-03-13T07:13:33;12.70;99.90
22471;DHT22;11402;51.374;6.594;2023-03-13T07:15:59;12.70;99.90
22471;DHT22;11402;51.374;6.594;2023-03-13T07:18:25;12.70;99.90
22471;DHT22;11402;51.374;6.594;2023-03-13T07:20:52;12.70;99.90
22471;DHT22;11402;51.374;6.594;2023-03-13T07:23:19;12.80;99.90
22471;DHT22;11402;51.374;6.594;2023-03-13T07:25:55;12.90;99.90
22471;DHT22;11402;51.374;6.594;2023-03-13T07:28:21;12.90;99.90
22471;DHT22;11402;51.374;6.594;2023-03-13T07:30:47;12.90;99.90
22471;DHT22;11402;51.374;6.594;2023-03-13T07:33:13;12.90;99.90
22471;DHT22;11402;51.374;6.594;2023-03-13T07:35:39;12.90;99.90
22471;DHT22;11402;51.374;6.594;2023-03-13T07:38:04;12.90;99.90
22471;DHT22;11402;51.374;6.594;2023-03-13T07:40:30;12.90;99.90
22471;DHT22;11402;51.374;6.594;2023-03-13T07:42:55;12.90;99.90
22471;DHT22;11402;51.374;6.594;2023-03-13T07:45:21;12.90;99.90
22471;DHT22;11402;51.374;6.594;2023-03-13T07:47:46;12.90;99.90
22471;DHT22;11402;51.374;6.594;2023-03-13T07:50:12;13.00;99.90
22471;DHT22;11402;51.374;6.594;2023-03-13T07:52:38;13.00;99.90
22471;DHT22;11402;51.374;6.594;2023-03-13T07:55:03;12.90;99.90
22471;DHT22;11402;51.374;6.594;2023-03-13T07:57:29;12.90;99.90
22471;DHT22;11402;51.374;6.594;2023-03-13T07:59:55;13.00;99.90
22471;DHT22;11402;51.374;6.594;2023-03-13T08:02:20;13.00;99.90
22471;DHT22;11402;51.374;6.594;2023-03-13T08:04:46;13.00;99.90
22471;DHT22;11402;51.374;6.594;2023-03-13T08:07:12;12.90;99.90
22471;DHT22;11402;51.374;6.594;2023-03-13T08:09:37;13.10;99.90
22471;DHT22;11402;51.374;6.594;2023-03-13T08:12:03;13.10;99.90
22471;DHT22;11402;51.374;6.594;2023-03-13T08:14:29;13.10;99.90
22471;DHT22;11402;51.374;6.594;2023-03-13T08:16:54;13.10;99.90
22471;DHT22;11402;51.374;6.594;2023-03-13T08:19:20;13.10;99.90
22471;DHT22;11402;51.374;6.594;2023-03-13T08:21:46;13.20;99.90
22471;DHT22;11402;51.374;6.594;2023-03-13T08:24:11;13.10;99.90
22471;DHT22;11402;51.374;6.594;2023-03-13T08:26:39;13.20;99.90
22471;DHT22;11402;51.374;6.594;2023-03-13T08:29:08;13.20;99.90
22471;DHT22;11402;51.374;6.594;2023-03-13T08:31:42;13.20;99.90
22471;DHT22;11402;51.374;6.594;2023-03-13T08:34:10;13.30;99.90
22471;DHT22;11402;51.374;6.594;2023-03-13T08:36:37;13.30;99.90
22471;DHT22;11402;51.374;6.594;2023-03-13T08:39:19;13.30;99.90
22471;DHT22;11402;51.374;6.594;2023-03-13T08:41:45;13.30;99.90
22471;DHT22;11402;51.374;6.594;2023-03-13T08:44:13;13.30;99.90
22471;DHT22;11402;51.374;6.594;2023-03-13T08:46:39;13.30;99.90
22471;DHT22;11402;51.374;6.594;2023-03-13T08:49:06;13.30;99.90
22471;DHT22;11402;51.374;6.594;2023-03-13T08:51:32;13.40;99.90
22471;DHT22;11402;51.374;6.594;2023-03-13T08:53:58;13.40;99.90
22471;DHT22;11402;51.374;6.594;2023-03-13T08:56:27;13.40;99.90
22471;DHT22;11402;51.374;6.594;2023-03-13T08:58:56;13.40;99.90
22471;DHT22;11402;51.374;6.594;2023-03-13T09:01:25;13.50;99.90
22471;DHT22;11402;51.374;6.594;2023-03-13T09:03:51;13.60;99.90
22471;DHT22;11402;51.374;6.594;2023-03-13T09:06:17;13.70;99.90
22471;DHT22;11402;51.374;6.594;2023-03-13T09:08:43;13.70;99.90
22471;DHT22;11402;51.374;6.594;2023-03-13T09:11:12;13.70;99.90
22471;DHT22;11402;51.374;6.594;2023-03-13T09:13:40;13.80;99.90
22471;DHT22;11402;51.374;6.594;2023-03-13T09:16:08;13.90;99.90
22471;DHT22;11402;51.374;6.594;2023-03-13T09:18:35;13.90;99.90
22471;DHT22;11402;51.374;6.594;2023-03-13T09:21:01;13.90;99.90
22471;DHT22;11402;51.374;6.594;2023-03-13T09:23:27;14.00;99.90
22471;DHT22;11402;51.374;6.594;2023-03-13T09:25:55;13.90;99.90
22471;DHT22;11402;51.374;6.594;2023-03-13T09:28:22;14.00;99.90
22471;DHT22;11402;51.374;6.594;2023-03-13T09:30:48;14.00;99.90
22471;DHT22;11402;51.374;6.594;2023-03-13T09:33:17;14.00;99.90
22471;DHT22;11402;51.374;6.594;2023-03-13T09:35:43;14.10;99.90
22471;DHT22;11402;51.374;6.594;2023-03-13T09:38:19;14.10;99.90
22471;DHT22;11402;51.374;6.594;2023-03-13T09:40:47;14.20;99.90
22471;DHT22;11402;51.374;6.594;2023-03-13T09:43:41;14.20;99.90
22471;DHT22;11402;51.374;6.594;2023-03-13T09:48:49;14.30;99.90
22471;DHT22;11402;51.374;6.594;2023-03-13T09:51:22;14.30;99.90
22471;DHT22;11402;51.374;6.594;2023-03-13T09:54:16;14.40;99.90
22471;DHT22;11402;51.374;6.594;2023-03-13T09:57:13;14.40;99.90
22471;DHT22;11402;51.374;6.594;2023-03-13T10:02:21;14.70;99.90
22471;DHT22;11402;51.374;6.594;2023-03-13T10:04:52;14.80;99.90
22471;DHT22;11402;51.374;6.594;2023-03-13T10:07:20;14.90;99.90
22471;DHT22;11402;51.374;6.594;2023-03-13T10:09:46;15.00;99.90
22471;DHT22;11402;51.374;6.594;2023-03-13T10:12:19;15.10;99.90
22471;DHT22;11402;51.374;6.594;2023-03-13T10:17:43;15.00;99.90
22471;DHT22;11402;51.374;6.594;2023-03-13T10:20:34;15.00;99.90
22471;DHT22;11402;51.374;6.594;2023-03-13T10:23:06;14.90;99.90
22471;DHT22;11402;51.374;6.594;2023-03-13T10:25:38;14.90;99.90
22471;DHT22;11402;51.374;6.594;2023-03-13T10:28:07;15.00;99.90
22471;DHT22;11402;51.374;6.594;2023-03-13T10:30:35;15.10;99.90
22471;DHT22;11402;51.374;6.594;2023-03-13T10:38:19;15.30;99.90
22471;DHT22;11402;51.374;6.594;2023-03-13T10:41:06;15.40;99.90
22471;DHT22;11402;51.374;6.594;2023-03-13T10:43:33;15.40;99.90
22471;DHT22;11402;51.374;6.594;2023-03-13T10:45:59;15.50;99.90
22471;DHT22;11402;51.374;6.594;2023-03-13T10:48:29;15.40;99.90
22471;DHT22;11402;51.374;6.594;2023-03-13T10:50:56;15.40;99.90
22471;DHT22;11402;51.374;6.594;2023-03-13T10:53:35;15.40;99.90
22471;DHT22;11402;51.374;6.594;2023-03-13T10:56:27;15.50;99.90
22471;DHT22;11402;51.374;6.594;2023-03-13T10:58:53;15.40;99.90
22471;DHT22;11402;51.374;6.594;2023-03-13T11:01:29;15.50;99.90
22471;DHT22;11402;51.374;6.594;2023-03-13T11:04:28;15.50;99.90
22471;DHT22;11402;51.374;6.594;2023-03-13T11:07:00;15.60;99.90
22471;DHT22;11402;51.374;6.594;2023-03-13T11:09:26;15.60;99.90
22471;DHT22;11402;51.374;6.594;2023-03-13T11:12:03;15.80;99.90
22471;DHT22;11402;51.374;6.594;2023-03-13T11:14:29;15.80;99.90
22471;DHT22;11402;51.374;6.594;2023-03-13T11:17:03;15.70;99.90
22471;DHT22;11402;51.374;6.594;2023-03-13T11:27:33;15.80;99.90
22471;DHT22;11402;51.374;6.594;2023-03-13T11:32:55;15.90;99.90
22471;DHT22;11402;51.374;6.594;2023-03-13T11:35:45;15.90;99.90
22471;DHT22;11402;51.374;6.594;2023-03-13T11:38:31;15.90;99.90
22471;DHT22;11402;51.374;6.594;2023-03-13T11:52:09;15.80;99.90
22471;DHT22;11402;51.374;6.594;2023-03-13T12:02:38;15.90;99.90
22471;DHT22;11402;51.374;6.594;2023-03-13T12:05:13;15.90;99.90
22471;DHT22;11402;51.374;6.594;2023-03-13T12:07:45;16.10;99.90
22471;DHT22;11402;51.374;6.594;2023-03-13T12:10:14;16.10;99.90
22471;DHT22;11402;51.374;6.594;2023-03-13T12:20:24;15.90;99.90
22471;DHT22;11402;51.374;6.594;2023-03-13T12:25:50;16.00;99.90
22471;DHT22;11402;51.374;6.594;2023-03-13T12:28:26;16.10;99.90
22471;DHT22;11402;51.374;6.594;2023-03-13T12:39:55;16.00;99.90
22471;DHT22;11402;51.374;6.594;2023-03-13T12:44:33;15.90;99.90
22471;DHT22;11402;51.374;6.594;2023-03-13T12:47:27;15.90;99.90
22471;DHT22;11402;51.374;6.594;2023-03-13T12:55:54;15.90;99.90
22471;DHT22;11402;51.374;6.594;2023-03-13T12:58:29;16.00;99.90
22471;DHT22;11402;51.374;6.594;2023-03-13T13:00:56;15.90;99.90
22471;DHT22;11402;51.374;6.594;2023-03-13T13:03:43;16.10;99.90
22471;DHT22;11402;51.374;6.594;2023-03-13T13:06:13;16.20;99.90
22471;DHT22;11402;51.374;6.594;2023-03-13T13:16:59;16.30;99.90
22471;DHT22;11402;51.374;6.594;2023-03-13T13:24:57;16.10;99.90
22471;DHT22;11402;51.374;6.594;2023-03-13T13:38:48;16.30;99.90
22471;DHT22;11402;51.374;6.594;2023-03-13T13:43:44;16.20;99.90
22471;DHT22;11402;51.374;6.594;2023-03-13T13:46:25;16.10;99.90
22471;DHT22;11402;51.374;6.594;2023-03-13T13:49:10;16.00;99.90
22471;DHT22;11402;51.374;6.594;2023-03-13T13:51:39;16.10;99.90
22471;DHT22;11402;51.374;6.594;2023-03-13T13:54:30;16.10;99.90
22471;DHT22;11402;51.374;6.594;2023-03-13T13:57:05;16.10;99.90
22471;DHT22;11402;51.374;6.594;2023-03-13T13:59:43;16.10;99.90
22471;DHT22;11402;51.374;6.594;2023-03-13T14:02:19;16.10;99.90
22471;DHT22;11402;51.374;6.594;2023-03-13T14:05:01;16.00;99.90
22471;DHT22;11402;51.374;6.594;2023-03-13T14:12:37;15.90;99.90
22471;DHT22;11402;51.374;6.594;2023-03-13T14:15:17;15.80;99.90
22471;DHT22;11402;51.374;6.594;2023-03-13T14:17:52;15.90;99.90
22471;DHT22;11402;51.374;6.594;2023-03-13T14:20:29;16.00;99.90
22471;DHT22;11402;51.374;6.594;2023-03-13T14:26:22;16.00;99.90
22471;DHT22;11402;51.374;6.594;2023-03-13T14:28:51;15.90;99.90
22471;DHT22;11402;51.374;6.594;2023-03-13T14:34:04;15.90;99.90
22471;DHT22;11402;51.374;6.594;2023-03-13T14:36:30;15.90;99.90
22471;DHT22;11402;51.374;6.594;2023-03-13T14:39:41;15.90;99.90
22471;DHT22;11402;51.374;6.594;2023-03-13T14:42:14;16.00;99.90
22471;DHT22;11402;51.374;6.594;2023-03-13T14:44:40;15.90;99.90
22471;DHT22;11402;51.374;6.594;2023-03-13T14:47:26;16.00;99.90
22471;DHT22;11402;51.374;6.594;2023-03-13T14:50:03;16.00;99.90
22471;DHT22;11402;51.374;6.594;2023-03-13T14:52:31;16.10;99.90
22471;DHT22;11402;51.374;6.594;2023-03-13T14:54:59;16.00;99.90
22471;DHT22;11402;51.374;6.594;2023-03-13T14:57:29;16.00;99.90
22471;DHT22;11402;51.374;6.594;2023-03-13T15:02:49;16.00;99.90
22471;DHT22;11402;51.374;6.594;2023-03-13T15:05:31;15.90;99.90
22471;DHT22;11402;51.374;6.594;2023-03-13T15:08:09;15.90;99.90
22471;DHT22;11402;51.374;6.594;2023-03-13T15:10:36;16.00;99.90
22471;DHT22;11402;51.374;6.594;2023-03-13T15:15:50;15.90;99.90
22471;DHT22;11402;51.374;6.594;2023-03-13T15:18:20;16.00;99.90
22471;DHT22;11402;51.374;6.594;2023-03-13T15:20:57;15.90;99.90
22471;DHT22;11402;51.374;6.594;2023-03-13T15:23:22;15.90;99.90
22471;DHT22;11402;51.374;6.594;2023-03-13T15:25:48;15.90;99.90
22471;DHT22;11402;51.374;6.594;2023-03-13T15:28:20;15.90;99.90
22471;DHT22;11402;51.374;6.594;2023-03-13T15:30:48;15.90;99.90
22471;DHT22;11402;51.374;6.594;2023-03-13T15:33:16;16.00;99.90
22471;DHT22;11402;51.374;6.594;2023-03-13T15:35:45;15.90;99.90
22471;DHT22;11402;51.374;6.594;2023-03-13T15:38:25;15.90;99.90
22471;DHT22;11402;51.374;6.594;2023-03-13T15:40:52;15.70;99.90
22471;DHT22;11402;51.374;6.594;2023-03-13T15:43:18;15.60;99.90
22471;DHT22;11402;51.374;6.594;2023-03-13T15:45:45;15.60;99.90
22471;DHT22;11402;51.374;6.594;2023-03-13T15:48:17;15.50;99.90
22471;DHT22;11402;51.374;6.594;2023-03-13T15:50:50;15.60;99.90
22471;DHT22;11402;51.374;6.594;2023-03-13T15:53:18;15.50;99.90
22471;DHT22;11402;51.374;6.594;2023-03-13T15:55:46;15.50;99.90
22471;DHT22;11402;51.374;6.594;2023-03-13T15:58:24;15.40;99.90
22471;DHT22;11402;51.374;6.594;2023-03-13T16:00:50;15.40;99.90
22471;DHT22;11402;51.374;6.594;2023-03-13T16:03:24;15.30;99.90
22471;DHT22;11402;51.374;6.594;2023-03-13T16:05:50;15.40;99.90
22471;DHT22;11402;51.374;6.594;2023-03-13T16:08:21;15.40;99.90
22471;DHT22;11402;51.374;6.594;2023-03-13T16:10:47;15.40;99.90
22471;DHT22;11402;51.374;6.594;2023-03-13T16:13:17;15.30;99.90
22471;DHT22;11402;51.374;6.594;2023-03-13T16:15:43;15.30;99.90
22471;DHT22;11402;51.374;6.594;2023-03-13T16:18:18;15.30;99.90
22471;DHT22;11402;51.374;6.594;2023-03-13T16:20:45;15.20;99.90
22471;DHT22;11402;51.374;6.594;2023-03-13T16:29:19;15.10;99.90
22471;DHT22;11402;51.374;6.594;2023-03-13T16:31:45;15.10;99.90
22471;DHT22;11402;51.374;6.594;2023-03-13T16:34:10;15.00;99.90
22471;DHT22;11402;51.374;6.594;2023-03-13T16:36:36;14.90;99.90
22471;DHT22;11402;51.374;6.594;2023-03-13T16:39:07;14.90;99.90
22471;DHT22;11402;51.374;6.594;2023-03-13T16:41:36;14.80;99.90
22471;DHT22;11402;51.374;6.594;2023-03-13T16:44:02;14.70;99.90
22471;DHT22;11402;51.374;6.594;2023-03-13T16:46:35;14.70;99.90
22471;DHT22;11402;51.374;6.594;2023-03-13T16:49:01;14.70;99.90
22471;DHT22;11402;51.374;6.594;2023-03-13T16:51:30;14.70;99.90
22471;DHT22;11402;51.374;6.594;2023-03-13T16:53:57;14.70;99.90
22471;DHT22;11402;51.374;6.594;2023-03-13T16:59:12;14.70;99.90
22471;DHT22;11402;51.374;6.594;2023-03-13T17:01:38;14.80;99.90
22471;DHT22;11402;51.374;6.594;2023-03-13T17:04:04;14.70;99.90
22471;DHT22;11402;51.374;6.594;2023-03-13T17:06:35;14.60;99.90
22471;DHT22;11402;51.374;6.594;2023-03-13T17:12:27;14.60;99.90
22471;DHT22;11402;51.374;6.594;2023-03-13T17:14:52;14.60;99.90
22471;DHT22;11402;51.374;6.594;2023-03-13T17:17:20;14.50;99.90
22471;DHT22;11402;51.374;6.594;2023-03-13T17:19:46;14.50;99.90
22471;DHT22;11402;51.374;6.594;2023-03-13T17:22:13;14.50;99.90
22471;DHT22;11402;51.374;6.594;2023-03-13T17:24:40;14.60;99.90
22471;DHT22;11402;51.374;6.594;2023-03-13T17:27:14;14.40;99.90
22471;DHT22;11402;51.374;6.594;2023-03-13T17:29:40;14.40;99.90
22471;DHT22;11402;51.374;6.594;2023-03-13T17:32:11;14.40;99.90
22471;DHT22;11402;51.374;6.594;2023-03-13T17:34:37;14.50;99.90
22471;DHT22;11402;51.374;6.594;2023-03-13T17:37:15;14.40;99.90
22471;DHT22;11402;51.374;6.594;2023-03-13T17:39:41;14.30;99.90
22471;DHT22;11402;51.374;6.594;2023-03-13T17:42:08;14.30;99.90
22471;DHT22;11402;51.374;6.594;2023-03-13T17:44:34;14.20;99.90
22471;DHT22;11402;51.374;6.594;2023-03-13T17:47:00;14.20;99.90
22471;DHT22;11402;51.374;6.594;2023-03-13T17:49:25;14.10;99.90
22471;DHT22;11402;51.374;6.594;2023-03-13T17:51:51;14.10;99.90
22471;DHT22;11402;51.374;6.594;2023-03-13T17:54:17;14.20;99.90
22471;DHT22;11402;51.374;6.594;2023-03-13T17:56:43;14.10;99.90